Strona główna
METAR-TAF:

METAR-TAF

Lotnisko :

Doylestown Airport

Doylestown, Pensylwania, Stany Zjednoczone

Szerokość geograficzna: 40-19-48N, Długość geograficzna: 075-07-21W, wysokość: 120 m

Aktualna obserwacja pogody

Raport powstał 28 minut temu, godzina 14:54 UTC
Wiatr 6 kt z kierunków zmiennych
Temperatura 18°C
Wilgotność 64%
Ciśnienie 1024 hPa
Widzialność: 16.1 km
Zachmurzenie całkowite na wysokości 7500 ft

METAR: KDYL 251454Z AUTO VRB06KT 10SM OVC075 18/11 A3023 RMK AO2 SLP236 T01830106 $

czas: 11:22 (15:22 UTC)


TAF: brakujący

Obserwacja i prognoza pogody dla ponad 4000 lotnisk (raport METAR i TAF).

Dostępne stacje oznaczono żółtymi i czerwonymi punktami na mapie.

Najedź kursorem aby zobaczyć nazwę stacji.

Kliknij aby zobaczyć obserwacje i prognozy pogody.

Aby zmienić mapę: kliknij na zielony przycisk z czarnym krzyżykiem, aby powiększyć; na zielony przycisk z myślnikiem, aby pomniejszyć; na zielone strzałki, aby przejść do map sąsiednich.


METAR-TAF: